sensor_id;sensor_type;location;lat;lon;timestamp;pressure;altitude;pressure_sealevel;temperature;humidity
67013;BME280;53926;47.406;19.188;2023-03-03T00:00:43;100574.16;;;-0.83;100.00
67013;BME280;53926;47.406;19.188;2023-03-03T00:03:14;100572.44;;;-0.83;100.00
67013;BME280;53926;47.406;19.188;2023-03-03T00:05:41;100568.00;;;-1.02;100.00
67013;BME280;53926;47.406;19.188;2023-03-03T00:08:08;100574.69;;;-1.11;100.00
67013;BME280;53926;47.406;19.188;2023-03-03T00:10:37;100572.25;;;-1.12;100.00
67013;BME280;53926;47.406;19.188;2023-03-03T00:13:40;100571.41;;;-1.13;100.00
67013;BME280;53926;47.406;19.188;2023-03-03T00:16:16;100572.75;;;-1.18;100.00
67013;BME280;53926;47.406;19.188;2023-03-03T00:18:45;100566.13;;;-1.21;100.00
67013;BME280;53926;47.406;19.188;2023-03-03T00:21:34;100575.56;;;-1.21;100.00
67013;BME280;53926;47.406;19.188;2023-03-03T00:24:24;100570.94;;;-1.28;100.00
67013;BME280;53926;47.406;19.188;2023-03-03T00:27:00;100565.63;;;-1.36;100.00
67013;BME280;53926;47.406;19.188;2023-03-03T00:32:21;100562.63;;;-1.41;100.00
67013;BME280;53926;47.406;19.188;2023-03-03T00:34:50;100562.87;;;-1.44;100.00
67013;BME280;53926;47.406;19.188;2023-03-03T00:37:33;100561.06;;;-1.53;100.00
67013;BME280;53926;47.406;19.188;2023-03-03T00:40:19;100561.47;;;-1.37;100.00
67013;BME280;53926;47.406;19.188;2023-03-03T00:42:55;100570.72;;;-1.36;100.00
67013;BME280;53926;47.406;19.188;2023-03-03T00:45:27;100561.59;;;-1.38;100.00
67013;BME280;53926;47.406;19.188;2023-03-03T00:47:55;100563.69;;;-1.22;100.00
67013;BME280;53926;47.406;19.188;2023-03-03T00:50:34;100567.00;;;-1.32;100.00
67013;BME280;53926;47.406;19.188;2023-03-03T00:53:15;100563.53;;;-1.31;100.00
67013;BME280;53926;47.406;19.188;2023-03-03T00:55:43;100567.00;;;-1.32;100.00
67013;BME280;53926;47.406;19.188;2023-03-03T00:58:10;100555.22;;;-1.23;100.00
67013;BME280;53926;47.406;19.188;2023-03-03T01:00:37;100548.78;;;-1.17;100.00
67013;BME280;53926;47.406;19.188;2023-03-03T01:03:07;100536.97;;;-1.18;100.00
67013;BME280;53926;47.406;19.188;2023-03-03T01:05:34;100552.03;;;-0.94;100.00
67013;BME280;53926;47.406;19.188;2023-03-03T01:08:01;100543.56;;;-0.95;100.00
67013;BME280;53926;47.406;19.188;2023-03-03T01:10:30;100541.44;;;-0.90;100.00
67013;BME280;53926;47.406;19.188;2023-03-03T01:12:57;100540.19;;;-0.95;100.00
67013;BME280;53926;47.406;19.188;2023-03-03T01:15:24;100537.78;;;-0.97;100.00
67013;BME280;53926;47.406;19.188;2023-03-03T01:17:51;100531.44;;;-0.93;100.00
67013;BME280;53926;47.406;19.188;2023-03-03T01:20:18;100539.72;;;-0.79;100.00
67013;BME280;53926;47.406;19.188;2023-03-03T01:22:44;100530.91;;;-0.65;100.00
67013;BME280;53926;47.406;19.188;2023-03-03T01:25:11;100521.94;;;-0.60;100.00
67013;BME280;53926;47.406;19.188;2023-03-03T01:27:38;100525.66;;;-0.64;100.00
67013;BME280;53926;47.406;19.188;2023-03-03T01:30:07;100522.19;;;-0.63;100.00
67013;BME280;53926;47.406;19.188;2023-03-03T01:32:34;100524.63;;;-0.51;100.00
67013;BME280;53926;47.406;19.188;2023-03-03T01:35:01;100526.03;;;-0.38;100.00
67013;BME280;53926;47.406;19.188;2023-03-03T01:37:27;100521.72;;;-0.37;100.00
67013;BME280;53926;47.406;19.188;2023-03-03T01:39:54;100519.31;;;-0.29;100.00
67013;BME280;53926;47.406;19.188;2023-03-03T01:42:21;100517.19;;;-0.24;100.00
67013;BME280;53926;47.406;19.188;2023-03-03T01:45:21;100520.00;;;-0.17;100.00
67013;BME280;53926;47.406;19.188;2023-03-03T01:51:03;100512.09;;;-0.04;100.00
67013;BME280;53926;47.406;19.188;2023-03-03T01:53:19;100510.91;;;0.00;100.00
67013;BME280;53926;47.406;19.188;2023-03-03T01:55:49;100510.78;;;0.02;100.00
67013;BME280;53926;47.406;19.188;2023-03-03T01:58:30;100506.19;;;0.05;100.00
67013;BME280;53926;47.406;19.188;2023-03-03T02:01:03;100505.66;;;0.02;100.00
67013;BME280;53926;47.406;19.188;2023-03-03T02:03:31;100516.41;;;0.05;100.00
67013;BME280;53926;47.406;19.188;2023-03-03T02:06:21;100510.75;;;0.21;100.00
67013;BME280;53926;47.406;19.188;2023-03-03T02:09:02;100514.28;;;0.30;100.00
67013;BME280;53926;47.406;19.188;2023-03-03T02:11:31;100508.75;;;0.34;100.00
67013;BME280;53926;47.406;19.188;2023-03-03T02:13:58;100505.37;;;0.34;100.00
67013;BME280;53926;47.406;19.188;2023-03-03T02:16:25;100497.16;;;0.40;100.00
67013;BME280;53926;47.406;19.188;2023-03-03T02:18:52;100504.16;;;0.48;100.00
67013;BME280;53926;47.406;19.188;2023-03-03T02:21:20;100500.63;;;0.49;100.00
67013;BME280;53926;47.406;19.188;2023-03-03T02:26:23;100504.94;;;0.58;100.00
67013;BME280;53926;47.406;19.188;2023-03-03T02:28:50;100504.94;;;0.58;100.00
67013;BME280;53926;47.406;19.188;2023-03-03T02:31:20;100495.09;;;0.63;100.00
67013;BME280;53926;47.406;19.188;2023-03-03T02:33:49;100503.84;;;0.70;100.00
67013;BME280;53926;47.406;19.188;2023-03-03T02:36:19;100493.88;;;0.67;100.00
67013;BME280;53926;47.406;19.188;2023-03-03T02:46:19;100494.56;;;0.69;100.00
67013;BME280;53926;47.406;19.188;2023-03-03T02:48:46;100489.94;;;0.73;100.00
67013;BME280;53926;47.406;19.188;2023-03-03T02:51:12;100486.56;;;0.82;100.00
67013;BME280;53926;47.406;19.188;2023-03-03T02:53:39;100485.34;;;0.86;100.00
67013;BME280;53926;47.406;19.188;2023-03-03T02:56:07;100478.69;;;0.94;100.00
67013;BME280;53926;47.406;19.188;2023-03-03T02:58:36;100481.13;;;0.95;100.00
67013;BME280;53926;47.406;19.188;2023-03-03T03:01:03;100473.81;;;1.00;100.00
67013;BME280;53926;47.406;19.188;2023-03-03T03:03:30;100469.59;;;1.09;100.00
67013;BME280;53926;47.406;19.188;2023-03-03T03:05:57;100472.56;;;1.14;100.00
67013;BME280;53926;47.406;19.188;2023-03-03T03:08:23;100475.25;;;1.13;100.00
67013;BME280;53926;47.406;19.188;2023-03-03T03:10:50;100478.69;;;1.31;100.00
67013;BME280;53926;47.406;19.188;2023-03-03T03:13:17;100478.97;;;1.28;100.00
67013;BME280;53926;47.406;19.188;2023-03-03T03:15:46;100473.12;;;1.36;100.00
67013;BME280;53926;47.406;19.188;2023-03-03T03:18:14;100474.56;;;1.48;100.00
67013;BME280;53926;47.406;19.188;2023-03-03T03:20:41;100469.06;;;1.61;100.00
67013;BME280;53926;47.406;19.188;2023-03-03T03:23:08;100464.00;;;1.51;100.00
67013;BME280;53926;47.406;19.188;2023-03-03T03:25:35;100469.50;;;1.56;100.00
67013;BME280;53926;47.406;19.188;2023-03-03T03:28:08;100468.34;;;1.69;100.00
67013;BME280;53926;47.406;19.188;2023-03-03T03:30:34;100466.81;;;1.76;100.00
67013;BME280;53926;47.406;19.188;2023-03-03T03:33:01;100461.16;;;1.72;100.00
67013;BME280;53926;47.406;19.188;2023-03-03T03:35:28;100457.19;;;1.78;100.00
67013;BME280;53926;47.406;19.188;2023-03-03T03:37:54;100457.28;;;1.86;100.00
67013;BME280;53926;47.406;19.188;2023-03-03T03:40:21;100453.47;;;1.90;100.00
67013;BME280;53926;47.406;19.188;2023-03-03T03:42:47;100458.97;;;1.95;100.00
67013;BME280;53926;47.406;19.188;2023-03-03T03:45:14;100454.84;;;2.03;100.00
67013;BME280;53926;47.406;19.188;2023-03-03T03:47:41;100446.06;;;2.05;100.00
67013;BME280;53926;47.406;19.188;2023-03-03T03:50:08;100458.31;;;2.11;100.00
67013;BME280;53926;47.406;19.188;2023-03-03T03:52:35;100445.38;;;2.03;100.00
67013;BME280;53926;47.406;19.188;2023-03-03T03:55:02;100446.75;;;2.15;100.00
67013;BME280;53926;47.406;19.188;2023-03-03T03:57:29;100446.47;;;2.19;100.00
67013;BME280;53926;47.406;19.188;2023-03-03T03:59:56;100438.31;;;2.23;100.00
67013;BME280;53926;47.406;19.188;2023-03-03T04:02:23;100443.31;;;2.25;100.00
67013;BME280;53926;47.406;19.188;2023-03-03T04:04:49;100434.75;;;2.16;100.00
67013;BME280;53926;47.406;19.188;2023-03-03T04:07:16;100429.84;;;2.31;100.00
67013;BME280;53926;47.406;19.188;2023-03-03T04:09:43;100438.75;;;2.37;100.00
67013;BME280;53926;47.406;19.188;2023-03-03T04:12:09;100439.69;;;2.36;100.00
67013;BME280;53926;47.406;19.188;2023-03-03T04:14:36;100431.78;;;2.29;100.00
67013;BME280;53926;47.406;19.188;2023-03-03T04:17:02;100441.84;;;2.22;100.00
67013;BME280;53926;47.406;19.188;2023-03-03T04:19:29;100435.53;;;2.35;100.00
67013;BME280;53926;47.406;19.188;2023-03-03T04:21:56;100436.03;;;2.38;100.00
67013;BME280;53926;47.406;19.188;2023-03-03T04:24:22;100435.81;;;2.31;100.00
67013;BME280;53926;47.406;19.188;2023-03-03T04:26:49;100426.19;;;2.33;100.00
67013;BME280;53926;47.406;19.188;2023-03-03T04:29:15;100427.56;;;2.46;100.00
67013;BME280;53926;47.406;19.188;2023-03-03T04:31:42;100424.25;;;2.36;100.00
67013;BME280;53926;47.406;19.188;2023-03-03T04:34:09;100425.12;;;2.44;100.00
67013;BME280;53926;47.406;19.188;2023-03-03T04:36:35;100424.84;;;2.47;100.00
67013;BME280;53926;47.406;19.188;2023-03-03T04:39:02;100426.84;;;2.36;100.00
67013;BME280;53926;47.406;19.188;2023-03-03T04:41:28;100419.56;;;2.31;100.00
67013;BME280;53926;47.406;19.188;2023-03-03T04:43:55;100424.53;;;2.24;100.00
67013;BME280;53926;47.406;19.188;2023-03-03T04:46:22;100429.25;;;2.37;100.00
67013;BME280;53926;47.406;19.188;2023-03-03T04:48:49;100425.59;;;2.40;100.00
67013;BME280;53926;47.406;19.188;2023-03-03T04:51:15;100430.78;;;2.48;100.00
67013;BME280;53926;47.406;19.188;2023-03-03T04:53:42;100425.00;;;2.46;100.00
67013;BME280;53926;47.406;19.188;2023-03-03T04:56:08;100427.25;;;2.49;100.00
67013;BME280;53926;47.406;19.188;2023-03-03T04:58:35;100423.81;;;2.40;100.00
67013;BME280;53926;47.406;19.188;2023-03-03T05:01:02;100421.47;;;2.47;100.00
67013;BME280;53926;47.406;19.188;2023-03-03T05:03:29;100418.34;;;2.35;100.00
67013;BME280;53926;47.406;19.188;2023-03-03T05:05:56;100419.50;;;2.41;100.00
67013;BME280;53926;47.406;19.188;2023-03-03T05:08:23;100422.09;;;2.23;100.00
67013;BME280;53926;47.406;19.188;2023-03-03T05:10:53;100420.78;;;2.19;100.00
67013;BME280;53926;47.406;19.188;2023-03-03T05:13:20;100418.59;;;2.24;100.00
67013;BME280;53926;47.406;19.188;2023-03-03T05:15:51;100424.22;;;2.27;100.00
67013;BME280;53926;47.406;19.188;2023-03-03T05:18:18;100431.47;;;2.32;100.00
67013;BME280;53926;47.406;19.188;2023-03-03T05:20:47;100424.13;;;2.37;100.00
67013;BME280;53926;47.406;19.188;2023-03-03T05:23:13;100426.22;;;2.42;100.00
67013;BME280;53926;47.406;19.188;2023-03-03T05:25:41;100435.56;;;2.43;100.00
67013;BME280;53926;47.406;19.188;2023-03-03T05:28:09;100429.53;;;2.52;100.00
67013;BME280;53926;47.406;19.188;2023-03-03T05:30:36;100436.28;;;2.53;100.00
67013;BME280;53926;47.406;19.188;2023-03-03T05:33:03;100435.97;;;2.56;100.00
67013;BME280;53926;47.406;19.188;2023-03-03T05:35:31;100441.44;;;2.53;100.00
67013;BME280;53926;47.406;19.188;2023-03-03T05:37:58;100438.25;;;2.59;100.00
67013;BME280;53926;47.406;19.188;2023-03-03T05:40:25;100436.78;;;2.57;100.00
67013;BME280;53926;47.406;19.188;2023-03-03T05:42:52;100438.19;;;2.51;100.00
67013;BME280;53926;47.406;19.188;2023-03-03T05:45:20;100442.78;;;2.65;100.00
67013;BME280;53926;47.406;19.188;2023-03-03T05:47:47;100441.38;;;2.71;100.00
67013;BME280;53926;47.406;19.188;2023-03-03T05:50:14;100443.28;;;2.69;100.00
67013;BME280;53926;47.406;19.188;2023-03-03T05:52:40;100443.50;;;2.76;100.00
67013;BME280;53926;47.406;19.188;2023-03-03T05:55:07;100444.59;;;2.73;100.00
67013;BME280;53926;47.406;19.188;2023-03-03T05:57:34;100441.34;;;2.97;100.00
67013;BME280;53926;47.406;19.188;2023-03-03T06:00:05;100444.81;;;3.14;100.00
67013;BME280;53926;47.406;19.188;2023-03-03T06:02:32;100449.44;;;3.11;100.00
67013;BME280;53926;47.406;19.188;2023-03-03T06:04:58;100451.84;;;3.12;100.00
67013;BME280;53926;47.406;19.188;2023-03-03T06:07:25;100445.00;;;3.29;100.00
67013;BME280;53926;47.406;19.188;2023-03-03T06:09:52;100451.31;;;3.43;100.00
67013;BME280;53926;47.406;19.188;2023-03-03T06:12:18;100450.53;;;3.51;100.00
67013;BME280;53926;47.406;19.188;2023-03-03T06:14:45;100450.09;;;3.64;100.00
67013;BME280;53926;47.406;19.188;2023-03-03T06:17:12;100461.34;;;3.54;100.00
67013;BME280;53926;47.406;19.188;2023-03-03T06:19:38;100452.66;;;3.64;100.00
67013;BME280;53926;47.406;19.188;2023-03-03T06:22:07;100457.50;;;3.75;100.00
67013;BME280;53926;47.406;19.188;2023-03-03T06:24:34;100460.37;;;3.64;100.00
67013;BME280;53926;47.406;19.188;2023-03-03T06:27:01;100464.31;;;4.01;100.00
67013;BME280;53926;47.406;19.188;2023-03-03T06:29:28;100464.63;;;4.22;100.00
67013;BME280;53926;47.406;19.188;2023-03-03T06:31:54;100470.44;;;4.16;100.00
67013;BME280;53926;47.406;19.188;2023-03-03T06:34:21;100471.72;;;4.37;100.00
67013;BME280;53926;47.406;19.188;2023-03-03T06:36:48;100470.44;;;4.24;100.00
67013;BME280;53926;47.406;19.188;2023-03-03T06:39:15;100468.63;;;4.58;100.00
67013;BME280;53926;47.406;19.188;2023-03-03T06:41:41;100465.28;;;4.41;100.00
67013;BME280;53926;47.406;19.188;2023-03-03T06:44:08;100478.00;;;5.07;100.00
67013;BME280;53926;47.406;19.188;2023-03-03T06:46:34;100474.00;;;5.04;100.00
67013;BME280;53926;47.406;19.188;2023-03-03T06:49:01;100479.78;;;5.06;100.00
67013;BME280;53926;47.406;19.188;2023-03-03T06:51:32;100467.94;;;5.28;100.00
67013;BME280;53926;47.406;19.188;2023-03-03T06:54:21;100473.28;;;5.27;100.00
67013;BME280;53926;47.406;19.188;2023-03-03T06:56:57;100473.84;;;5.45;100.00
67013;BME280;53926;47.406;19.188;2023-03-03T06:59:26;100475.72;;;5.20;100.00
67013;BME280;53926;47.406;19.188;2023-03-03T07:01:53;100474.06;;;5.27;100.00
67013;BME280;53926;47.406;19.188;2023-03-03T07:04:32;100477.00;;;5.24;100.00
67013;BME280;53926;47.406;19.188;2023-03-03T07:07:09;100483.72;;;5.33;100.00
67013;BME280;53926;47.406;19.188;2023-03-03T07:09:36;100486.06;;;5.51;100.00
67013;BME280;53926;47.406;19.188;2023-03-03T07:12:12;100489.41;;;5.60;100.00
67013;BME280;53926;47.406;19.188;2023-03-03T07:14:42;100494.56;;;5.91;100.00
67013;BME280;53926;47.406;19.188;2023-03-03T07:17:14;100486.91;;;5.44;100.00
67013;BME280;53926;47.406;19.188;2023-03-03T07:19:42;100495.59;;;5.82;100.00
67013;BME280;53926;47.406;19.188;2023-03-03T07:24:40;100496.59;;;6.04;100.00
67013;BME280;53926;47.406;19.188;2023-03-03T07:27:36;100504.63;;;6.33;100.00
67013;BME280;53926;47.406;19.188;2023-03-03T07:30:27;100508.41;;;6.22;100.00
67013;BME280;53926;47.406;19.188;2023-03-03T07:33:01;100504.13;;;6.52;100.00
67013;BME280;53926;47.406;19.188;2023-03-03T07:35:42;100507.13;;;7.09;100.00
67013;BME280;53926;47.406;19.188;2023-03-03T07:38:34;100506.94;;;6.95;100.00
67013;BME280;53926;47.406;19.188;2023-03-03T07:41:09;100516.50;;;6.95;100.00
67013;BME280;53926;47.406;19.188;2023-03-03T07:43:42;100511.97;;;6.44;100.00
67013;BME280;53926;47.406;19.188;2023-03-03T07:46:24;100509.62;;;6.11;100.00
67013;BME280;53926;47.406;19.188;2023-03-03T07:48:55;100509.75;;;6.56;100.00
67013;BME280;53926;47.406;19.188;2023-03-03T07:51:29;100509.28;;;6.90;100.00
67013;BME280;53926;47.406;19.188;2023-03-03T07:57:27;100508.59;;;7.48;99.35
67013;BME280;53926;47.406;19.188;2023-03-03T08:03:03;100513.28;;;7.74;97.63
67013;BME280;53926;47.406;19.188;2023-03-03T08:10:57;100512.63;;;8.52;91.64
67013;BME280;53926;47.406;19.188;2023-03-03T08:16:03;100507.81;;;8.49;93.59
67013;BME280;53926;47.406;19.188;2023-03-03T08:18:51;100508.66;;;8.84;92.03
67013;BME280;53926;47.406;19.188;2023-03-03T08:21:20;100515.41;;;9.13;90.46
67013;BME280;53926;47.406;19.188;2023-03-03T08:23:48;100508.50;;;9.34;89.79
67013;BME280;53926;47.406;19.188;2023-03-03T08:26:20;100519.56;;;9.49;87.80
67013;BME280;53926;47.406;19.188;2023-03-03T08:28:47;100518.97;;;9.47;85.57
67013;BME280;53926;47.406;19.188;2023-03-03T08:31:14;100509.84;;;9.78;86.23
67013;BME280;53926;47.406;19.188;2023-03-03T08:33:59;100512.50;;;10.32;84.36
67013;BME280;53926;47.406;19.188;2023-03-03T08:36:26;100506.09;;;10.28;83.43
67013;BME280;53926;47.406;19.188;2023-03-03T08:38:53;100501.13;;;10.46;82.43
67013;BME280;53926;47.406;19.188;2023-03-03T08:41:20;100499.03;;;10.88;82.42
67013;BME280;53926;47.406;19.188;2023-03-03T08:43:46;100503.50;;;10.28;83.70
67013;BME280;53926;47.406;19.188;2023-03-03T08:46:13;100502.09;;;10.18;82.68
67013;BME280;53926;47.406;19.188;2023-03-03T08:48:40;100500.91;;;10.28;82.11
67013;BME280;53926;47.406;19.188;2023-03-03T08:51:07;100505.31;;;10.67;81.21
67013;BME280;53926;47.406;19.188;2023-03-03T08:53:33;100513.53;;;10.51;82.29
67013;BME280;53926;47.406;19.188;2023-03-03T08:56:03;100513.47;;;10.04;84.08
67013;BME280;53926;47.406;19.188;2023-03-03T08:58:30;100512.47;;;9.98;84.83
67013;BME280;53926;47.406;19.188;2023-03-03T09:01:02;100508.03;;;9.85;85.65
67013;BME280;53926;47.406;19.188;2023-03-03T09:03:28;100504.84;;;9.90;85.71
67013;BME280;53926;47.406;19.188;2023-03-03T09:05:55;100510.47;;;9.94;86.03
67013;BME280;53926;47.406;19.188;2023-03-03T09:08:22;100510.69;;;10.19;85.05
67013;BME280;53926;47.406;19.188;2023-03-03T09:10:49;100505.28;;;10.27;84.80
67013;BME280;53926;47.406;19.188;2023-03-03T09:13:17;100504.69;;;10.18;83.81
67013;BME280;53926;47.406;19.188;2023-03-03T09:15:45;100501.69;;;10.28;84.90
67013;BME280;53926;47.406;19.188;2023-03-03T09:20:50;100513.66;;;10.96;81.11
67013;BME280;53926;47.406;19.188;2023-03-03T09:25:51;100507.94;;;10.34;84.04
67013;BME280;53926;47.406;19.188;2023-03-03T09:28:23;100503.53;;;10.34;83.71
67013;BME280;53926;47.406;19.188;2023-03-03T09:30:52;100500.53;;;10.51;83.39
67013;BME280;53926;47.406;19.188;2023-03-03T09:33:30;100506.72;;;10.50;84.43
67013;BME280;53926;47.406;19.188;2023-03-03T09:36:20;100506.88;;;10.88;83.78
67013;BME280;53926;47.406;19.188;2023-03-03T09:38:48;100497.72;;;10.39;83.94
67013;BME280;53926;47.406;19.188;2023-03-03T09:49:44;100508.91;;;10.80;83.34
67013;BME280;53926;47.406;19.188;2023-03-03T09:52:29;100504.75;;;11.31;80.54
67013;BME280;53926;47.406;19.188;2023-03-03T10:03:09;100505.44;;;12.22;74.75
67013;BME280;53926;47.406;19.188;2023-03-03T10:05:58;100501.84;;;12.16;76.45
67013;BME280;53926;47.406;19.188;2023-03-03T10:11:21;100496.97;;;12.26;75.32
67013;BME280;53926;47.406;19.188;2023-03-03T10:22:23;100490.06;;;12.57;72.86
67013;BME280;53926;47.406;19.188;2023-03-03T10:33:35;100478.03;;;16.40;56.53
67013;BME280;53926;47.406;19.188;2023-03-03T10:58:34;100468.53;;;18.47;42.57
67013;BME280;53926;47.406;19.188;2023-03-03T11:04:20;100463.75;;;17.68;44.66
67013;BME280;53926;47.406;19.188;2023-03-03T11:07:12;100464.00;;;18.90;41.67
67013;BME280;53926;47.406;19.188;2023-03-03T11:21:23;100441.06;;;21.05;37.46
67013;BME280;53926;47.406;19.188;2023-03-03T11:23:59;100436.25;;;21.12;36.65
67013;BME280;53926;47.406;19.188;2023-03-03T11:26:53;100431.91;;;19.91;39.17
67013;BME280;53926;47.406;19.188;2023-03-03T11:34:57;100428.91;;;19.05;40.96
67013;BME280;53926;47.406;19.188;2023-03-03T11:37:36;100432.84;;;18.87;39.74
67013;BME280;53926;47.406;19.188;2023-03-03T11:40:35;100420.00;;;19.68;38.59
67013;BME280;53926;47.406;19.188;2023-03-03T11:43:36;100418.38;;;18.94;39.50
67013;BME280;53926;47.406;19.188;2023-03-03T11:46:08;100413.53;;;18.18;41.87
67013;BME280;53926;47.406;19.188;2023-03-03T11:51:18;100406.19;;;16.95;45.40
67013;BME280;53926;47.406;19.188;2023-03-03T11:54:09;100404.56;;;18.19;43.33
67013;BME280;53926;47.406;19.188;2023-03-03T11:56:42;100398.09;;;19.41;39.40
67013;BME280;53926;47.406;19.188;2023-03-03T12:02:22;100389.37;;;19.41;42.85
67013;BME280;53926;47.406;19.188;2023-03-03T12:04:56;100385.94;;;19.51;40.09
67013;BME280;53926;47.406;19.188;2023-03-03T12:07:43;100391.47;;;19.23;40.02
67013;BME280;53926;47.406;19.188;2023-03-03T12:12:43;100389.72;;;18.02;44.37
67013;BME280;53926;47.406;19.188;2023-03-03T12:15:18;100386.63;;;17.41;43.79
67013;BME280;53926;47.406;19.188;2023-03-03T12:20:59;100386.50;;;16.32;47.98
67013;BME280;53926;47.406;19.188;2023-03-03T12:28:51;100376.09;;;17.41;44.39
67013;BME280;53926;47.406;19.188;2023-03-03T12:33:58;100361.28;;;16.80;46.25
67013;BME280;53926;47.406;19.188;2023-03-03T12:42:23;100359.81;;;17.44;44.66
67013;BME280;53926;47.406;19.188;2023-03-03T12:48:00;100356.41;;;17.48;43.88
67013;BME280;53926;47.406;19.188;2023-03-03T12:50:42;100360.38;;;16.69;47.34
67013;BME280;53926;47.406;19.188;2023-03-03T12:53:29;100353.62;;;18.08;43.24
67013;BME280;53926;47.406;19.188;2023-03-03T12:56:03;100359.13;;;18.59;43.09
67013;BME280;53926;47.406;19.188;2023-03-03T12:59:04;100363.88;;;18.57;43.22
67013;BME280;53926;47.406;19.188;2023-03-03T13:01:43;100361.88;;;18.17;43.20
67013;BME280;53926;47.406;19.188;2023-03-03T13:07:11;100358.44;;;17.09;44.85
67013;BME280;53926;47.406;19.188;2023-03-03T13:10:07;100349.06;;;16.91;45.52
67013;BME280;53926;47.406;19.188;2023-03-03T13:20:50;100338.69;;;16.57;46.58
67013;BME280;53926;47.406;19.188;2023-03-03T13:26:25;100345.69;;;17.60;43.66
67013;BME280;53926;47.406;19.188;2023-03-03T13:32:02;100352.31;;;17.63;43.10
67013;BME280;53926;47.406;19.188;2023-03-03T13:37:27;100336.63;;;16.37;47.53
67013;BME280;53926;47.406;19.188;2023-03-03T13:42:46;100339.06;;;15.48;49.13
67013;BME280;53926;47.406;19.188;2023-03-03T13:51:22;100321.34;;;15.89;48.10
67013;BME280;53926;47.406;19.188;2023-03-03T13:53:55;100313.22;;;15.40;49.71
67013;BME280;53926;47.406;19.188;2023-03-03T13:56:40;100308.13;;;15.67;49.73
67013;BME280;53926;47.406;19.188;2023-03-03T13:59:38;100316.53;;;15.69;49.78
67013;BME280;53926;47.406;19.188;2023-03-03T14:07:54;100311.94;;;15.09;50.71
67013;BME280;53926;47.406;19.188;2023-03-03T14:10:36;100308.47;;;14.74;51.59
67013;BME280;53926;47.406;19.188;2023-03-03T14:13:11;100311.87;;;14.34;52.69
67013;BME280;53926;47.406;19.188;2023-03-03T14:15:50;100306.34;;;14.19;53.01
67013;BME280;53926;47.406;19.188;2023-03-03T14:18:35;100313.66;;;13.69;54.73
67013;BME280;53926;47.406;19.188;2023-03-03T14:21:18;100315.16;;;13.23;56.86
67013;BME280;53926;47.406;19.188;2023-03-03T14:26:19;100302.03;;;12.99;58.84
67013;BME280;53926;47.406;19.188;2023-03-03T14:28:48;100297.41;;;13.13;57.51
67013;BME280;53926;47.406;19.188;2023-03-03T14:31:26;100289.97;;;12.38;60.11
67013;BME280;53926;47.406;19.188;2023-03-03T14:34:13;100292.56;;;12.56;60.83
67013;BME280;53926;47.406;19.188;2023-03-03T14:36:57;100284.16;;;12.54;60.10
67013;BME280;53926;47.406;19.188;2023-03-03T14:39:34;100292.16;;;12.22;61.44
67013;BME280;53926;47.406;19.188;2023-03-03T14:42:12;100289.09;;;12.44;61.88
67013;BME280;53926;47.406;19.188;2023-03-03T14:47:25;100277.94;;;11.99;62.44
67013;BME280;53926;47.406;19.188;2023-03-03T14:49:53;100272.62;;;11.88;63.37
67013;BME280;53926;47.406;19.188;2023-03-03T14:52:23;100267.22;;;11.82;63.85
67013;BME280;53926;47.406;19.188;2023-03-03T14:54:56;100281.56;;;11.73;64.75
67013;BME280;53926;47.406;19.188;2023-03-03T15:03:22;100273.88;;;11.09;68.81
67013;BME280;53926;47.406;19.188;2023-03-03T15:05:55;100279.44;;;11.13;69.22
67013;BME280;53926;47.406;19.188;2023-03-03T15:08:34;100270.47;;;11.09;69.34
67013;BME280;53926;47.406;19.188;2023-03-03T15:11:19;100266.53;;;11.00;70.23
67013;BME280;53926;47.406;19.188;2023-03-03T15:13:51;100265.72;;;10.99;69.82
67013;BME280;53926;47.406;19.188;2023-03-03T15:16:21;100263.31;;;10.98;70.67
67013;BME280;53926;47.406;19.188;2023-03-03T15:21:24;100269.78;;;10.95;71.18
67013;BME280;53926;47.406;19.188;2023-03-03T15:24:04;100266.53;;;11.00;71.16
67013;BME280;53926;47.406;19.188;2023-03-03T15:26:43;100271.56;;;10.95;71.46
67013;BME280;53926;47.406;19.188;2023-03-03T15:34:40;100269.34;;;10.98;71.74
67013;BME280;53926;47.406;19.188;2023-03-03T15:40:27;100273.75;;;10.66;72.92
67013;BME280;53926;47.406;19.188;2023-03-03T15:42:56;100281.37;;;10.61;74.03
67013;BME280;53926;47.406;19.188;2023-03-03T15:45:38;100279.00;;;10.52;74.43
67013;BME280;53926;47.406;19.188;2023-03-03T15:57:12;100286.28;;;10.24;76.09
67013;BME280;53926;47.406;19.188;2023-03-03T16:05:25;100294.31;;;10.15;75.96
67013;BME280;53926;47.406;19.188;2023-03-03T16:08:10;100304.31;;;10.12;76.83
67013;BME280;53926;47.406;19.188;2023-03-03T16:13:45;100309.41;;;9.80;70.98
67013;BME280;53926;47.406;19.188;2023-03-03T16:19:39;100303.62;;;9.44;66.46
67013;BME280;53926;47.406;19.188;2023-03-03T16:28:09;100323.28;;;8.85;67.41
67013;BME280;53926;47.406;19.188;2023-03-03T16:30:51;100324.81;;;8.59;68.62
67013;BME280;53926;47.406;19.188;2023-03-03T16:38:57;100327.31;;;7.83;70.30
67013;BME280;53926;47.406;19.188;2023-03-03T16:46:50;100334.97;;;6.83;76.59
67013;BME280;53926;47.406;19.188;2023-03-03T16:52:23;100342.09;;;6.06;83.38
67013;BME280;53926;47.406;19.188;2023-03-03T16:54:58;100350.22;;;5.65;86.35
67013;BME280;53926;47.406;19.188;2023-03-03T17:00:14;100346.69;;;5.35;89.72
67013;BME280;53926;47.406;19.188;2023-03-03T17:09:05;100355.78;;;4.60;96.09
67013;BME280;53926;47.406;19.188;2023-03-03T17:17:14;100364.62;;;4.01;100.00
67013;BME280;53926;47.406;19.188;2023-03-03T17:21:01;100372.84;;;3.64;100.00
67013;BME280;53926;47.406;19.188;2023-03-03T17:23:06;100365.25;;;3.70;100.00